sensor_id;sensor_type;location;lat;lon;timestamp;temperature;humidity
16517;DHT22;8371;52.272;9.746;2022-12-28T00:01:53;7.40;79.60
16517;DHT22;8371;52.272;9.746;2022-12-28T00:04:18;7.30;79.50
16517;DHT22;8371;52.272;9.746;2022-12-28T00:06:44;7.40;79.50
16517;DHT22;8371;52.272;9.746;2022-12-28T00:09:12;7.40;79.50
16517;DHT22;8371;52.272;9.746;2022-12-28T00:11:38;7.40;79.50
16517;DHT22;8371;52.272;9.746;2022-12-28T00:14:03;7.40;79.50
16517;DHT22;8371;52.272;9.746;2022-12-28T00:16:32;7.40;79.50
16517;DHT22;8371;52.272;9.746;2022-12-28T00:19:02;7.30;79.50
16517;DHT22;8371;52.272;9.746;2022-12-28T00:21:27;7.30;79.30
16517;DHT22;8371;52.272;9.746;2022-12-28T00:23:56;7.30;79.30
16517;DHT22;8371;52.272;9.746;2022-12-28T00:26:22;7.30;79.30
16517;DHT22;8371;52.272;9.746;2022-12-28T00:28:47;7.30;79.30
16517;DHT22;8371;52.272;9.746;2022-12-28T00:31:14;7.30;79.30
16517;DHT22;8371;52.272;9.746;2022-12-28T00:33:40;7.30;79.20
16517;DHT22;8371;52.272;9.746;2022-12-28T00:36:06;7.30;79.20
16517;DHT22;8371;52.272;9.746;2022-12-28T00:38:34;7.30;79.20
16517;DHT22;8371;52.272;9.746;2022-12-28T00:41:00;7.20;79.20
16517;DHT22;8371;52.272;9.746;2022-12-28T00:43:26;7.20;79.20
16517;DHT22;8371;52.272;9.746;2022-12-28T00:45:52;7.20;79.20
16517;DHT22;8371;52.272;9.746;2022-12-28T00:48:17;7.20;79.20
16517;DHT22;8371;52.272;9.746;2022-12-28T00:50:43;7.20;79.20
16517;DHT22;8371;52.272;9.746;2022-12-28T00:53:10;7.20;79.30
16517;DHT22;8371;52.272;9.746;2022-12-28T00:55:37;7.10;79.20
16517;DHT22;8371;52.272;9.746;2022-12-28T00:58:03;7.10;79.20
16517;DHT22;8371;52.272;9.746;2022-12-28T01:00:30;7.10;79.30
16517;DHT22;8371;52.272;9.746;2022-12-28T01:02:56;7.10;79.20
16517;DHT22;8371;52.272;9.746;2022-12-28T01:05:22;7.10;79.30
16517;DHT22;8371;52.272;9.746;2022-12-28T01:07:48;7.10;79.20
16517;DHT22;8371;52.272;9.746;2022-12-28T01:10:14;7.10;79.30
16517;DHT22;8371;52.272;9.746;2022-12-28T01:12:41;7.10;79.30
16517;DHT22;8371;52.272;9.746;2022-12-28T01:15:08;7.10;78.80
16517;DHT22;8371;52.272;9.746;2022-12-28T01:17:34;7.10;79.40
16517;DHT22;8371;52.272;9.746;2022-12-28T01:20:01;7.10;79.40
16517;DHT22;8371;52.272;9.746;2022-12-28T01:22:26;7.10;79.40
16517;DHT22;8371;52.272;9.746;2022-12-28T01:24:52;7.10;79.40
16517;DHT22;8371;52.272;9.746;2022-12-28T01:27:18;7.10;79.50
16517;DHT22;8371;52.272;9.746;2022-12-28T01:29:44;7.20;79.40
16517;DHT22;8371;52.272;9.746;2022-12-28T01:32:10;7.10;79.40
16517;DHT22;8371;52.272;9.746;2022-12-28T01:34:36;7.20;79.50
16517;DHT22;8371;52.272;9.746;2022-12-28T01:37:01;7.10;79.40
16517;DHT22;8371;52.272;9.746;2022-12-28T01:39:27;7.20;79.40
16517;DHT22;8371;52.272;9.746;2022-12-28T01:41:53;7.20;79.50
16517;DHT22;8371;52.272;9.746;2022-12-28T01:46:59;7.30;79.50
16517;DHT22;8371;52.272;9.746;2022-12-28T01:49:31;7.30;79.70
16517;DHT22;8371;52.272;9.746;2022-12-28T01:52:13;7.30;79.50
16517;DHT22;8371;52.272;9.746;2022-12-28T01:54:42;7.30;79.40
16517;DHT22;8371;52.272;9.746;2022-12-28T01:57:09;7.30;79.40
16517;DHT22;8371;52.272;9.746;2022-12-28T01:59:38;7.40;79.50
16517;DHT22;8371;52.272;9.746;2022-12-28T02:02:04;7.40;79.50
16517;DHT22;8371;52.272;9.746;2022-12-28T02:04:30;7.40;79.40
16517;DHT22;8371;52.272;9.746;2022-12-28T02:06:56;7.40;79.40
16517;DHT22;8371;52.272;9.746;2022-12-28T02:09:39;7.40;79.40
16517;DHT22;8371;52.272;9.746;2022-12-28T02:12:12;7.50;79.40
16517;DHT22;8371;52.272;9.746;2022-12-28T02:14:38;7.50;79.40
16517;DHT22;8371;52.272;9.746;2022-12-28T02:17:07;7.50;79.40
16517;DHT22;8371;52.272;9.746;2022-12-28T02:19:37;7.50;79.40
16517;DHT22;8371;52.272;9.746;2022-12-28T02:22:23;7.60;79.50
16517;DHT22;8371;52.272;9.746;2022-12-28T02:25:09;7.60;79.40
16517;DHT22;8371;52.272;9.746;2022-12-28T02:30:18;7.60;79.40
16517;DHT22;8371;52.272;9.746;2022-12-28T02:35:33;7.70;79.40
16517;DHT22;8371;52.272;9.746;2022-12-28T02:38:09;7.70;79.40
16517;DHT22;8371;52.272;9.746;2022-12-28T02:40:43;7.70;79.40
16517;DHT22;8371;52.272;9.746;2022-12-28T02:43:09;7.70;79.30
16517;DHT22;8371;52.272;9.746;2022-12-28T02:48:22;7.80;79.30
16517;DHT22;8371;52.272;9.746;2022-12-28T02:51:33;7.80;79.20
16517;DHT22;8371;52.272;9.746;2022-12-28T02:54:20;7.90;79.20
16517;DHT22;8371;52.272;9.746;2022-12-28T02:57:16;7.90;79.30
16517;DHT22;8371;52.272;9.746;2022-12-28T02:59:51;7.80;79.20
16517;DHT22;8371;52.272;9.746;2022-12-28T03:02:23;8.00;79.40
16517;DHT22;8371;52.272;9.746;2022-12-28T03:07:49;8.00;79.10
16517;DHT22;8371;52.272;9.746;2022-12-28T03:11:04;8.00;79.00
16517;DHT22;8371;52.272;9.746;2022-12-28T03:13:37;8.10;79.00
16517;DHT22;8371;52.272;9.746;2022-12-28T03:16:12;8.10;79.20
16517;DHT22;8371;52.272;9.746;2022-12-28T03:18:39;8.10;79.10
16517;DHT22;8371;52.272;9.746;2022-12-28T03:21:26;8.10;79.10
16517;DHT22;8371;52.272;9.746;2022-12-28T03:24:12;8.10;79.10
16517;DHT22;8371;52.272;9.746;2022-12-28T03:26:59;8.10;79.20
16517;DHT22;8371;52.272;9.746;2022-12-28T03:30:00;8.10;79.10
16517;DHT22;8371;52.272;9.746;2022-12-28T03:32:46;8.20;79.20
16517;DHT22;8371;52.272;9.746;2022-12-28T03:35:13;8.20;79.20
16517;DHT22;8371;52.272;9.746;2022-12-28T03:37:46;8.20;79.20
16517;DHT22;8371;52.272;9.746;2022-12-28T03:42:48;8.20;79.40
16517;DHT22;8371;52.272;9.746;2022-12-28T03:45:40;8.20;79.40
16517;DHT22;8371;52.272;9.746;2022-12-28T03:48:06;8.20;79.40
16517;DHT22;8371;52.272;9.746;2022-12-28T03:50:37;8.20;79.40
16517;DHT22;8371;52.272;9.746;2022-12-28T03:53:04;8.20;79.50
16517;DHT22;8371;52.272;9.746;2022-12-28T03:55:30;8.20;79.40
16517;DHT22;8371;52.272;9.746;2022-12-28T03:57:55;8.20;79.50
16517;DHT22;8371;52.272;9.746;2022-12-28T04:00:21;8.20;79.50
16517;DHT22;8371;52.272;9.746;2022-12-28T04:02:47;8.20;79.50
16517;DHT22;8371;52.272;9.746;2022-12-28T04:05:12;8.20;79.50
16517;DHT22;8371;52.272;9.746;2022-12-28T04:07:39;8.20;79.60
16517;DHT22;8371;52.272;9.746;2022-12-28T04:10:05;8.20;79.60
16517;DHT22;8371;52.272;9.746;2022-12-28T04:12:32;8.20;79.60
16517;DHT22;8371;52.272;9.746;2022-12-28T04:14:57;8.20;79.60
16517;DHT22;8371;52.272;9.746;2022-12-28T04:17:23;8.20;79.70
16517;DHT22;8371;52.272;9.746;2022-12-28T04:19:49;8.20;79.70
16517;DHT22;8371;52.272;9.746;2022-12-28T04:22:14;8.20;79.70
16517;DHT22;8371;52.272;9.746;2022-12-28T04:24:40;8.20;79.80
16517;DHT22;8371;52.272;9.746;2022-12-28T04:27:06;8.20;79.80
16517;DHT22;8371;52.272;9.746;2022-12-28T04:29:31;8.20;79.80
16517;DHT22;8371;52.272;9.746;2022-12-28T04:31:57;8.30;80.30
16517;DHT22;8371;52.272;9.746;2022-12-28T04:34:23;8.30;80.00
16517;DHT22;8371;52.272;9.746;2022-12-28T04:36:48;8.30;80.00
16517;DHT22;8371;52.272;9.746;2022-12-28T04:39:14;8.20;79.90
16517;DHT22;8371;52.272;9.746;2022-12-28T04:41:40;8.30;80.00
16517;DHT22;8371;52.272;9.746;2022-12-28T04:44:05;8.30;80.00
16517;DHT22;8371;52.272;9.746;2022-12-28T04:46:31;8.40;80.00
16517;DHT22;8371;52.272;9.746;2022-12-28T04:48:59;8.40;80.10
16517;DHT22;8371;52.272;9.746;2022-12-28T04:51:26;8.40;80.00
16517;DHT22;8371;52.272;9.746;2022-12-28T04:53:53;8.40;80.00
16517;DHT22;8371;52.272;9.746;2022-12-28T04:56:21;8.50;80.20
16517;DHT22;8371;52.272;9.746;2022-12-28T04:58:47;8.50;80.20
16517;DHT22;8371;52.272;9.746;2022-12-28T05:01:16;8.50;80.20
16517;DHT22;8371;52.272;9.746;2022-12-28T05:03:43;8.50;80.30
16517;DHT22;8371;52.272;9.746;2022-12-28T05:06:11;8.60;80.40
16517;DHT22;8371;52.272;9.746;2022-12-28T05:08:38;8.60;81.00
16517;DHT22;8371;52.272;9.746;2022-12-28T05:11:07;8.60;80.20
16517;DHT22;8371;52.272;9.746;2022-12-28T05:13:33;8.70;80.30
16517;DHT22;8371;52.272;9.746;2022-12-28T05:16:00;8.70;80.40
16517;DHT22;8371;52.272;9.746;2022-12-28T05:18:27;8.80;80.30
16517;DHT22;8371;52.272;9.746;2022-12-28T05:21:04;8.80;80.20
16517;DHT22;8371;52.272;9.746;2022-12-28T05:23:32;8.90;80.20
16517;DHT22;8371;52.272;9.746;2022-12-28T05:25:58;8.90;80.20
16517;DHT22;8371;52.272;9.746;2022-12-28T05:28:25;8.90;80.10
16517;DHT22;8371;52.272;9.746;2022-12-28T05:30:51;8.90;80.10
16517;DHT22;8371;52.272;9.746;2022-12-28T05:33:18;9.00;80.10
16517;DHT22;8371;52.272;9.746;2022-12-28T05:35:44;9.00;80.00
16517;DHT22;8371;52.272;9.746;2022-12-28T05:38:10;9.00;80.00
16517;DHT22;8371;52.272;9.746;2022-12-28T05:40:35;9.00;80.00
16517;DHT22;8371;52.272;9.746;2022-12-28T05:43:01;9.10;80.00
16517;DHT22;8371;52.272;9.746;2022-12-28T05:45:27;9.10;80.00
16517;DHT22;8371;52.272;9.746;2022-12-28T05:47:53;9.10;80.00
16517;DHT22;8371;52.272;9.746;2022-12-28T05:50:19;9.20;80.00
16517;DHT22;8371;52.272;9.746;2022-12-28T05:52:45;9.20;79.90
16517;DHT22;8371;52.272;9.746;2022-12-28T05:55:11;9.20;79.90
16517;DHT22;8371;52.272;9.746;2022-12-28T05:57:36;9.20;79.90
16517;DHT22;8371;52.272;9.746;2022-12-28T06:00:03;9.30;79.80
16517;DHT22;8371;52.272;9.746;2022-12-28T06:02:29;9.20;79.80
16517;DHT22;8371;52.272;9.746;2022-12-28T06:04:55;9.30;79.90
16517;DHT22;8371;52.272;9.746;2022-12-28T06:07:21;9.30;79.80
16517;DHT22;8371;52.272;9.746;2022-12-28T06:09:47;9.30;79.80
16517;DHT22;8371;52.272;9.746;2022-12-28T06:12:12;9.30;79.80
16517;DHT22;8371;52.272;9.746;2022-12-28T06:14:38;9.30;79.70
16517;DHT22;8371;52.272;9.746;2022-12-28T06:17:04;9.30;79.70
16517;DHT22;8371;52.272;9.746;2022-12-28T06:19:29;9.40;79.80
16517;DHT22;8371;52.272;9.746;2022-12-28T06:21:55;9.40;79.80
16517;DHT22;8371;52.272;9.746;2022-12-28T06:24:21;9.30;79.70
16517;DHT22;8371;52.272;9.746;2022-12-28T06:26:47;9.40;80.00
16517;DHT22;8371;52.272;9.746;2022-12-28T06:29:13;9.40;79.80
16517;DHT22;8371;52.272;9.746;2022-12-28T06:31:41;9.40;79.90
16517;DHT22;8371;52.272;9.746;2022-12-28T06:34:08;9.40;80.00
16517;DHT22;8371;52.272;9.746;2022-12-28T06:36:36;9.40;80.00
16517;DHT22;8371;52.272;9.746;2022-12-28T06:39:05;9.40;80.00
16517;DHT22;8371;52.272;9.746;2022-12-28T06:41:31;9.40;80.00
16517;DHT22;8371;52.272;9.746;2022-12-28T06:43:58;9.40;80.10
16517;DHT22;8371;52.272;9.746;2022-12-28T06:46:26;9.40;80.10
16517;DHT22;8371;52.272;9.746;2022-12-28T06:48:52;9.40;80.20
16517;DHT22;8371;52.272;9.746;2022-12-28T06:51:21;9.40;80.30
16517;DHT22;8371;52.272;9.746;2022-12-28T06:53:55;9.30;80.20
16517;DHT22;8371;52.272;9.746;2022-12-28T06:56:26;9.30;80.20
16517;DHT22;8371;52.272;9.746;2022-12-28T06:58:59;9.30;80.30
16517;DHT22;8371;52.272;9.746;2022-12-28T07:01:31;9.30;80.40
16517;DHT22;8371;52.272;9.746;2022-12-28T07:03:58;9.30;80.50
16517;DHT22;8371;52.272;9.746;2022-12-28T07:06:26;9.30;81.00
16517;DHT22;8371;52.272;9.746;2022-12-28T07:09:00;9.30;80.60
16517;DHT22;8371;52.272;9.746;2022-12-28T07:11:26;9.30;81.40
16517;DHT22;8371;52.272;9.746;2022-12-28T07:13:54;9.30;80.80
16517;DHT22;8371;52.272;9.746;2022-12-28T07:16:21;9.30;80.90
16517;DHT22;8371;52.272;9.746;2022-12-28T07:18:48;9.30;80.80
16517;DHT22;8371;52.272;9.746;2022-12-28T07:24:02;9.30;81.00
16517;DHT22;8371;52.272;9.746;2022-12-28T07:26:29;9.30;81.10
16517;DHT22;8371;52.272;9.746;2022-12-28T07:28:57;9.30;81.10
16517;DHT22;8371;52.272;9.746;2022-12-28T07:31:29;9.30;81.20
16517;DHT22;8371;52.272;9.746;2022-12-28T07:33:56;9.30;81.20
16517;DHT22;8371;52.272;9.746;2022-12-28T07:36:23;9.30;81.30
16517;DHT22;8371;52.272;9.746;2022-12-28T07:38:49;9.30;81.30
16517;DHT22;8371;52.272;9.746;2022-12-28T07:41:21;9.30;81.30
16517;DHT22;8371;52.272;9.746;2022-12-28T07:43:47;9.40;81.40
16517;DHT22;8371;52.272;9.746;2022-12-28T07:46:16;9.40;81.40
16517;DHT22;8371;52.272;9.746;2022-12-28T07:48:43;9.40;81.50
16517;DHT22;8371;52.272;9.746;2022-12-28T07:51:18;9.40;81.60
16517;DHT22;8371;52.272;9.746;2022-12-28T07:53:42;9.40;81.60
16517;DHT22;8371;52.272;9.746;2022-12-28T07:56:08;9.40;81.60
16517;DHT22;8371;52.272;9.746;2022-12-28T07:58:35;9.50;81.70
16517;DHT22;8371;52.272;9.746;2022-12-28T08:01:05;9.50;81.60
16517;DHT22;8371;52.272;9.746;2022-12-28T08:03:32;9.50;81.60
16517;DHT22;8371;52.272;9.746;2022-12-28T08:06:11;9.50;82.00
16517;DHT22;8371;52.272;9.746;2022-12-28T08:08:35;9.60;81.50
16517;DHT22;8371;52.272;9.746;2022-12-28T08:11:04;9.60;81.60
16517;DHT22;8371;52.272;9.746;2022-12-28T08:13:32;9.60;81.70
16517;DHT22;8371;52.272;9.746;2022-12-28T08:15:58;9.60;82.40
16517;DHT22;8371;52.272;9.746;2022-12-28T08:18:25;9.60;81.60
16517;DHT22;8371;52.272;9.746;2022-12-28T08:20:50;9.70;81.90
16517;DHT22;8371;52.272;9.746;2022-12-28T08:23:16;9.70;81.70
16517;DHT22;8371;52.272;9.746;2022-12-28T08:25:42;9.70;81.70
16517;DHT22;8371;52.272;9.746;2022-12-28T08:28:07;9.70;81.90
16517;DHT22;8371;52.272;9.746;2022-12-28T08:30:33;9.70;81.70
16517;DHT22;8371;52.272;9.746;2022-12-28T08:32:59;9.80;81.70
16517;DHT22;8371;52.272;9.746;2022-12-28T08:35:25;9.80;81.70
16517;DHT22;8371;52.272;9.746;2022-12-28T08:37:55;9.80;81.60
16517;DHT22;8371;52.272;9.746;2022-12-28T08:40:21;9.80;81.60
16517;DHT22;8371;52.272;9.746;2022-12-28T08:42:49;9.80;81.60
16517;DHT22;8371;52.272;9.746;2022-12-28T08:45:15;9.90;81.60
16517;DHT22;8371;52.272;9.746;2022-12-28T08:47:40;9.90;81.60
16517;DHT22;8371;52.272;9.746;2022-12-28T08:50:07;9.90;81.60
16517;DHT22;8371;52.272;9.746;2022-12-28T08:52:32;9.90;81.80
16517;DHT22;8371;52.272;9.746;2022-12-28T08:54:58;9.90;81.80
16517;DHT22;8371;52.272;9.746;2022-12-28T08:57:24;9.90;81.70
16517;DHT22;8371;52.272;9.746;2022-12-28T08:59:52;9.90;81.60
16517;DHT22;8371;52.272;9.746;2022-12-28T09:02:18;10.00;81.70
16517;DHT22;8371;52.272;9.746;2022-12-28T09:04:43;10.00;81.70
16517;DHT22;8371;52.272;9.746;2022-12-28T09:07:09;10.00;81.90
16517;DHT22;8371;52.272;9.746;2022-12-28T09:09:35;10.00;81.90
16517;DHT22;8371;52.272;9.746;2022-12-28T09:12:00;10.00;81.80
16517;DHT22;8371;52.272;9.746;2022-12-28T09:14:26;10.10;82.60
16517;DHT22;8371;52.272;9.746;2022-12-28T09:16:52;10.10;81.80
16517;DHT22;8371;52.272;9.746;2022-12-28T09:19:18;10.20;81.90
16517;DHT22;8371;52.272;9.746;2022-12-28T09:21:44;10.20;81.90
16517;DHT22;8371;52.272;9.746;2022-12-28T09:24:12;10.20;81.80
16517;DHT22;8371;52.272;9.746;2022-12-28T09:26:37;10.30;81.90
16517;DHT22;8371;52.272;9.746;2022-12-28T09:29:05;10.20;81.70
16517;DHT22;8371;52.272;9.746;2022-12-28T09:31:34;10.30;81.90
16517;DHT22;8371;52.272;9.746;2022-12-28T09:34:06;10.30;81.80
16517;DHT22;8371;52.272;9.746;2022-12-28T09:36:38;10.40;81.80
16517;DHT22;8371;52.272;9.746;2022-12-28T09:39:05;10.40;81.90
16517;DHT22;8371;52.272;9.746;2022-12-28T09:41:36;10.40;81.80
16517;DHT22;8371;52.272;9.746;2022-12-28T09:44:26;10.40;81.90
16517;DHT22;8371;52.272;9.746;2022-12-28T09:46:53;10.50;81.90
16517;DHT22;8371;52.272;9.746;2022-12-28T09:49:23;10.60;81.90
16517;DHT22;8371;52.272;9.746;2022-12-28T09:52:21;10.60;81.90
16517;DHT22;8371;52.272;9.746;2022-12-28T09:54:35;10.60;81.90
16517;DHT22;8371;52.272;9.746;2022-12-28T09:57:01;10.70;81.90
16517;DHT22;8371;52.272;9.746;2022-12-28T09:59:29;10.70;81.90
16517;DHT22;8371;52.272;9.746;2022-12-28T10:02:01;10.70;81.80
16517;DHT22;8371;52.272;9.746;2022-12-28T10:04:28;10.80;81.90
16517;DHT22;8371;52.272;9.746;2022-12-28T10:06:55;10.90;82.00
16517;DHT22;8371;52.272;9.746;2022-12-28T10:09:27;10.90;81.90
16517;DHT22;8371;52.272;9.746;2022-12-28T10:11:54;11.00;81.90
16517;DHT22;8371;52.272;9.746;2022-12-28T10:14:28;11.00;81.80
16517;DHT22;8371;52.272;9.746;2022-12-28T10:16:55;11.00;81.90
16517;DHT22;8371;52.272;9.746;2022-12-28T10:19:25;11.10;81.80
16517;DHT22;8371;52.272;9.746;2022-12-28T10:21:59;11.10;81.90
16517;DHT22;8371;52.272;9.746;2022-12-28T10:24:26;11.20;81.90
16517;DHT22;8371;52.272;9.746;2022-12-28T10:26:53;11.20;82.00
16517;DHT22;8371;52.272;9.746;2022-12-28T10:29:21;11.30;82.20
16517;DHT22;8371;52.272;9.746;2022-12-28T10:32:02;11.30;82.00
16517;DHT22;8371;52.272;9.746;2022-12-28T10:34:31;11.40;81.90
16517;DHT22;8371;52.272;9.746;2022-12-28T10:37:06;11.40;81.80
16517;DHT22;8371;52.272;9.746;2022-12-28T10:39:33;11.40;81.60
16517;DHT22;8371;52.272;9.746;2022-12-28T10:41:59;11.50;81.60
16517;DHT22;8371;52.272;9.746;2022-12-28T10:44:31;11.50;81.60
16517;DHT22;8371;52.272;9.746;2022-12-28T10:47:02;11.50;81.50
16517;DHT22;8371;52.272;9.746;2022-12-28T10:49:36;11.60;81.50
16517;DHT22;8371;52.272;9.746;2022-12-28T10:54:44;11.60;81.60
16517;DHT22;8371;52.272;9.746;2022-12-28T10:57:18;11.60;81.50
16517;DHT22;8371;52.272;9.746;2022-12-28T10:59:45;11.70;81.50
16517;DHT22;8371;52.272;9.746;2022-12-28T11:02:30;11.70;81.50
16517;DHT22;8371;52.272;9.746;2022-12-28T11:05:02;11.70;81.40
16517;DHT22;8371;52.272;9.746;2022-12-28T11:07:36;11.70;81.30
16517;DHT22;8371;52.272;9.746;2022-12-28T11:10:23;11.80;81.40
16517;DHT22;8371;52.272;9.746;2022-12-28T11:13:18;11.80;81.30
16517;DHT22;8371;52.272;9.746;2022-12-28T11:15:44;11.70;81.20
16517;DHT22;8371;52.272;9.746;2022-12-28T11:18:15;11.80;81.30
16517;DHT22;8371;52.272;9.746;2022-12-28T11:20:44;11.70;81.20
16517;DHT22;8371;52.272;9.746;2022-12-28T11:23:25;11.80;81.30
16517;DHT22;8371;52.272;9.746;2022-12-28T11:25:53;11.80;80.70
16517;DHT22;8371;52.272;9.746;2022-12-28T11:28:20;11.80;81.40
16517;DHT22;8371;52.272;9.746;2022-12-28T11:30:48;11.80;81.50
16517;DHT22;8371;52.272;9.746;2022-12-28T11:33:42;11.80;81.50
16517;DHT22;8371;52.272;9.746;2022-12-28T11:36:14;11.80;81.50
16517;DHT22;8371;52.272;9.746;2022-12-28T11:38:43;11.80;81.40
16517;DHT22;8371;52.272;9.746;2022-12-28T11:43:58;11.90;81.60
16517;DHT22;8371;52.272;9.746;2022-12-28T11:49:22;11.90;81.80
16517;DHT22;8371;52.272;9.746;2022-12-28T11:54:36;12.00;81.60
16517;DHT22;8371;52.272;9.746;2022-12-28T11:57:02;12.10;82.50
16517;DHT22;8371;52.272;9.746;2022-12-28T11:59:34;12.00;81.60
16517;DHT22;8371;52.272;9.746;2022-12-28T12:02:02;12.10;81.70
16517;DHT22;8371;52.272;9.746;2022-12-28T12:04:36;12.10;81.70
16517;DHT22;8371;52.272;9.746;2022-12-28T12:07:05;12.20;81.70
16517;DHT22;8371;52.272;9.746;2022-12-28T12:15:01;12.30;81.60
16517;DHT22;8371;52.272;9.746;2022-12-28T12:17:39;12.30;81.50
16517;DHT22;8371;52.272;9.746;2022-12-28T12:20:22;12.40;81.60
16517;DHT22;8371;52.272;9.746;2022-12-28T12:22:55;12.40;81.40
16517;DHT22;8371;52.272;9.746;2022-12-28T12:25:38;12.40;81.30
16517;DHT22;8371;52.272;9.746;2022-12-28T12:28:30;12.40;81.30
16517;DHT22;8371;52.272;9.746;2022-12-28T12:30:55;12.40;81.30
16517;DHT22;8371;52.272;9.746;2022-12-28T12:33:27;12.40;81.20
16517;DHT22;8371;52.272;9.746;2022-12-28T12:38:58;12.40;81.20
16517;DHT22;8371;52.272;9.746;2022-12-28T12:41:30;12.40;81.10
16517;DHT22;8371;52.272;9.746;2022-12-28T12:44:16;12.40;81.10
16517;DHT22;8371;52.272;9.746;2022-12-28T12:49:46;12.40;81.30
16517;DHT22;8371;52.272;9.746;2022-12-28T12:52:21;12.40;81.30
16517;DHT22;8371;52.272;9.746;2022-12-28T12:55:09;12.30;81.30
16517;DHT22;8371;52.272;9.746;2022-12-28T12:57:48;12.40;81.50
16517;DHT22;8371;52.272;9.746;2022-12-28T13:05:36;12.40;81.80
16517;DHT22;8371;52.272;9.746;2022-12-28T13:08:03;12.40;81.80
16517;DHT22;8371;52.272;9.746;2022-12-28T13:10:34;12.40;81.80
16517;DHT22;8371;52.272;9.746;2022-12-28T13:13:01;12.40;81.80
16517;DHT22;8371;52.272;9.746;2022-12-28T13:15:27;12.40;81.90
16517;DHT22;8371;52.272;9.746;2022-12-28T13:18:05;12.50;81.90
16517;DHT22;8371;52.272;9.746;2022-12-28T13:20:32;12.50;81.90
16517;DHT22;8371;52.272;9.746;2022-12-28T13:22:58;12.50;81.80
16517;DHT22;8371;52.272;9.746;2022-12-28T13:25:28;12.50;81.80
16517;DHT22;8371;52.272;9.746;2022-12-28T13:27:55;12.50;81.70
16517;DHT22;8371;52.272;9.746;2022-12-28T13:30:23;12.60;81.70
16517;DHT22;8371;52.272;9.746;2022-12-28T13:32:57;12.60;81.70
16517;DHT22;8371;52.272;9.746;2022-12-28T13:35:26;12.60;81.60
16517;DHT22;8371;52.272;9.746;2022-12-28T13:38:14;12.60;81.40
16517;DHT22;8371;52.272;9.746;2022-12-28T13:40:49;12.60;81.40
16517;DHT22;8371;52.272;9.746;2022-12-28T13:43:41;12.60;81.30
16517;DHT22;8371;52.272;9.746;2022-12-28T13:46:05;12.60;81.30
16517;DHT22;8371;52.272;9.746;2022-12-28T13:48:34;12.60;81.30
16517;DHT22;8371;52.272;9.746;2022-12-28T13:51:01;12.60;81.10
16517;DHT22;8371;52.272;9.746;2022-12-28T13:53:29;12.50;81.00
16517;DHT22;8371;52.272;9.746;2022-12-28T13:55:57;12.50;81.00
16517;DHT22;8371;52.272;9.746;2022-12-28T13:58:35;12.50;81.00
16517;DHT22;8371;52.272;9.746;2022-12-28T14:01:03;12.50;81.00
16517;DHT22;8371;52.272;9.746;2022-12-28T14:03:30;12.50;81.10
16517;DHT22;8371;52.272;9.746;2022-12-28T14:05:58;12.50;81.10
16517;DHT22;8371;52.272;9.746;2022-12-28T14:08:26;12.50;81.10
16517;DHT22;8371;52.272;9.746;2022-12-28T14:10:53;12.40;81.00
16517;DHT22;8371;52.272;9.746;2022-12-28T14:13:19;12.50;81.10
16517;DHT22;8371;52.272;9.746;2022-12-28T14:15:46;12.50;81.10
16517;DHT22;8371;52.272;9.746;2022-12-28T14:18:16;12.50;81.30
16517;DHT22;8371;52.272;9.746;2022-12-28T14:20:46;12.40;81.10
16517;DHT22;8371;52.272;9.746;2022-12-28T14:23:24;12.40;81.00
16517;DHT22;8371;52.272;9.746;2022-12-28T14:25:51;12.40;81.00
16517;DHT22;8371;52.272;9.746;2022-12-28T14:28:28;12.40;81.00
16517;DHT22;8371;52.272;9.746;2022-12-28T14:30:54;12.40;81.00
16517;DHT22;8371;52.272;9.746;2022-12-28T14:33:22;12.40;81.00
16517;DHT22;8371;52.272;9.746;2022-12-28T14:35:54;12.40;81.00
16517;DHT22;8371;52.272;9.746;2022-12-28T14:38:23;12.40;81.00
16517;DHT22;8371;52.272;9.746;2022-12-28T14:40:52;12.40;81.00
16517;DHT22;8371;52.272;9.746;2022-12-28T14:43:29;12.40;81.10
16517;DHT22;8371;52.272;9.746;2022-12-28T14:45:56;12.40;81.00
16517;DHT22;8371;52.272;9.746;2022-12-28T14:51:04;12.40;81.00
16517;DHT22;8371;52.272;9.746;2022-12-28T14:53:27;12.30;81.00
16517;DHT22;8371;52.272;9.746;2022-12-28T14:56:05;12.30;81.00
16517;DHT22;8371;52.272;9.746;2022-12-28T14:58:50;12.30;80.90
16517;DHT22;8371;52.272;9.746;2022-12-28T15:01:17;12.30;80.90
16517;DHT22;8371;52.272;9.746;2022-12-28T15:04:00;12.30;80.90
16517;DHT22;8371;52.272;9.746;2022-12-28T15:06:28;12.30;80.90
16517;DHT22;8371;52.272;9.746;2022-12-28T15:08:55;12.30;81.00
16517;DHT22;8371;52.272;9.746;2022-12-28T15:11:23;12.20;80.80
16517;DHT22;8371;52.272;9.746;2022-12-28T15:13:50;12.20;80.80
16517;DHT22;8371;52.272;9.746;2022-12-28T15:16:19;12.20;80.90
16517;DHT22;8371;52.272;9.746;2022-12-28T15:18:45;12.20;80.80
16517;DHT22;8371;52.272;9.746;2022-12-28T15:21:13;12.20;80.80
16517;DHT22;8371;52.272;9.746;2022-12-28T15:23:39;12.20;80.80
16517;DHT22;8371;52.272;9.746;2022-12-28T15:26:12;12.20;80.80
16517;DHT22;8371;52.272;9.746;2022-12-28T15:28:38;12.20;80.90
16517;DHT22;8371;52.272;9.746;2022-12-28T15:31:12;12.10;80.70
16517;DHT22;8371;52.272;9.746;2022-12-28T15:33:38;12.10;80.70
16517;DHT22;8371;52.272;9.746;2022-12-28T15:36:07;12.10;80.70
16517;DHT22;8371;52.272;9.746;2022-12-28T15:38:33;12.00;80.70
16517;DHT22;8371;52.272;9.746;2022-12-28T15:40:59;12.10;80.70
16517;DHT22;8371;52.272;9.746;2022-12-28T15:43:25;12.00;80.70
16517;DHT22;8371;52.272;9.746;2022-12-28T15:45:56;11.90;80.70
16517;DHT22;8371;52.272;9.746;2022-12-28T15:48:22;11.90;80.70
16517;DHT22;8371;52.272;9.746;2022-12-28T15:50:48;11.90;80.70
16517;DHT22;8371;52.272;9.746;2022-12-28T15:53:15;11.90;80.70
16517;DHT22;8371;52.272;9.746;2022-12-28T15:55:42;11.90;80.30
16517;DHT22;8371;52.272;9.746;2022-12-28T15:58:08;11.80;80.60
16517;DHT22;8371;52.272;9.746;2022-12-28T16:00:34;11.80;80.70
16517;DHT22;8371;52.272;9.746;2022-12-28T16:03:00;11.80;80.60
16517;DHT22;8371;52.272;9.746;2022-12-28T16:05:26;11.80;80.60
16517;DHT22;8371;52.272;9.746;2022-12-28T16:07:52;11.80;80.60
16517;DHT22;8371;52.272;9.746;2022-12-28T16:10:17;11.80;80.60
16517;DHT22;8371;52.272;9.746;2022-12-28T16:12:44;11.80;80.60
16517;DHT22;8371;52.272;9.746;2022-12-28T16:15:10;11.70;80.60
16517;DHT22;8371;52.272;9.746;2022-12-28T16:17:36;11.70;80.60
16517;DHT22;8371;52.272;9.746;2022-12-28T16:20:02;11.70;80.60
16517;DHT22;8371;52.272;9.746;2022-12-28T16:22:28;11.70;80.60
16517;DHT22;8371;52.272;9.746;2022-12-28T16:24:54;11.70;80.60
16517;DHT22;8371;52.272;9.746;2022-12-28T16:27:20;11.70;80.50
16517;DHT22;8371;52.272;9.746;2022-12-28T16:29:45;11.60;80.50
16517;DHT22;8371;52.272;9.746;2022-12-28T16:32:13;11.60;80.40
16517;DHT22;8371;52.272;9.746;2022-12-28T16:34:39;11.60;80.40
16517;DHT22;8371;52.272;9.746;2022-12-28T16:37:05;11.60;80.30
16517;DHT22;8371;52.272;9.746;2022-12-28T16:39:31;11.60;80.20
16517;DHT22;8371;52.272;9.746;2022-12-28T16:41:57;11.60;80.20
16517;DHT22;8371;52.272;9.746;2022-12-28T16:44:24;11.60;80.10
16517;DHT22;8371;52.272;9.746;2022-12-28T16:46:52;11.60;80.20
16517;DHT22;8371;52.272;9.746;2022-12-28T16:49:19;11.60;80.20
16517;DHT22;8371;52.272;9.746;2022-12-28T16:51:46;11.60;80.20
16517;DHT22;8371;52.272;9.746;2022-12-28T16:54:20;11.60;80.10
16517;DHT22;8371;52.272;9.746;2022-12-28T16:56:47;11.50;80.10
16517;DHT22;8371;52.272;9.746;2022-12-28T16:59:22;11.50;80.10